Reefer Bay — V2CY — position and weather

sailwx.info

Track history (hours):
 
Tides and Currents Weather Stations Pressure Air Temp Water Temp Dewpoint Dewpoint Depression Visibility Wind Speed Wind Dir Waves Ship Positions

Reefer Bay

Last reported at 2018-Jun-20 05:27 UTC. Time now 2018-Jun-20 05:50 UTC.
Position N 28°37' W 013°25'.

Length 221 m; draft 11.5 m.

Type: Ship (hazmat cat A). MMSI: 304504000.

Date/timePositionNaut miles runAvg speedWind from/ knotsBaromVisibWave heightAir tempDewpointWater temp
2018-Jun-20 05:27N 28°37' W 013°25'816.7
2018-Jun-20 05:00N 28°44' W 013°21'816.4
2018-Jun-20 04:30N 28°51' W 013°17'816.4
2018-Jun-20 04:00N 28°58' W 013°13'816.4
2018-Jun-20 03:29N 29°06' W 013°09'41816.0
2018-Jun-19 01:23N 34°30' W 007°58'146 5.2
2018-Jun-17 21:19N 35°55' W 005°33'1 1.5
2018-Jun-17 20:59N 35°55' W 005°33'1 1.5
2018-Jun-17 20:28N 35°54' W 005°34'1 2.7
2018-Jun-17 19:57N 35°55' W 005°32'2 4.6
2018-Jun-17 19:29N 35°56' W 005°34'4 7.9
2018-Jun-17 19:00N 35°58' W 005°30'612.6
2018-Jun-17 18:30N 36°03' W 005°24'  
2018-Jun-15 05:34N 36°09' W 005°24'0 6.4
2018-Jun-15 05:30N 36°09' W 005°24'1 2.7
2018-Jun-15 04:59N 36°08' W 005°25'0 0.0
2018-Jun-15 04:29N 36°08' W 005°25'0 0.0
2018-Jun-15 03:59N 36°08' W 005°25'0 0.0
2018-Jun-15 03:29N 36°08' W 005°25'0 0.0
2018-Jun-15 02:53N 36°08' W 005°25'0 0.0
2018-Jun-15 02:29N 36°08' W 005°25'0 0.0
2018-Jun-15 01:59N 36°08' W 005°25'0 0.0
2018-Jun-15 01:29N 36°08' W 005°25'0 0.0
2018-Jun-15 00:59N 36°08' W 005°25'0 0.0
2018-Jun-15 00:29N 36°08' W 005°25'0 0.0
2018-Jun-14 23:53N 36°08' W 005°25'0 0.0
2018-Jun-14 23:29N 36°08' W 005°25'0 0.0
2018-Jun-14 22:59N 36°08' W 005°25'0 0.0
2018-Jun-14 22:23N 36°08' W 005°25'0 0.0
2018-Jun-14 21:59N 36°08' W 005°25'0 0.0
2018-Jun-14 21:23N 36°08' W 005°25'0 0.0
2018-Jun-14 20:59N 36°08' W 005°25'0 0.0
2018-Jun-14 20:29N 36°08' W 005°25'0 0.0
2018-Jun-14 19:59N 36°08' W 005°25'0 0.0
2018-Jun-14 19:23N 36°08' W 005°25'0 0.0
2018-Jun-14 18:59N 36°08' W 005°25'0 0.0
2018-Jun-14 18:29N 36°08' W 005°25'0 0.0
2018-Jun-14 17:59N 36°08' W 005°25'0 0.0
2018-Jun-14 17:29N 36°08' W 005°25'0 0.0
2018-Jun-14 16:53N 36°08' W 005°25'0 0.0
2018-Jun-14 16:29N 36°08' W 005°25'0 0.0
2018-Jun-14 15:59N 36°08' W 005°25'0 0.0
2018-Jun-14 15:29N 36°08' W 005°25'0 0.0
2018-Jun-14 14:59N 36°08' W 005°25'0 0.0
2018-Jun-14 14:29N 36°08' W 005°25'0 0.0
2018-Jun-14 13:59N 36°08' W 005°25'0 0.0
2018-Jun-14 13:29N 36°08' W 005°25'0 0.0
2018-Jun-14 12:59N 36°08' W 005°25'0 0.0
2018-Jun-14 12:29N 36°08' W 005°25'0 0.0
2018-Jun-14 11:59N 36°08' W 005°25'0 0.0
2018-Jun-14 11:29N 36°08' W 005°25'0 0.0
2018-Jun-14 10:59N 36°08' W 005°25'0 0.0
2018-Jun-14 10:29N 36°08' W 005°25'0 0.0
2018-Jun-14 10:00N 36°08' W 005°25'1 0.1
2018-Jun-14 00:29N 36°08' W 005°25'0 0.1
2018-Jun-13 23:47N 36°08' W 005°25'0 0.1
2018-Jun-13 22:50N 36°08' W 005°25'0 0.5
2018-Jun-13 22:30N 36°08' W 005°25'0 0.8
2018-Jun-13 21:59N 36°08' W 005°24'4 9.0
2018-Jun-13 21:31N 36°04' W 005°22'713.4
2018-Jun-13 21:00N 36°05' W 005°14'3 5.0
2018-Jun-13 20:30N 36°07' W 005°12'0 0.9
2018-Jun-13 20:00N 36°07' W 005°12'3 5.7
2018-Jun-13 19:30N 36°04' W 005°11'1 1.9
2018-Jun-13 19:00N 36°04' W 005°12'1 1.4
2018-Jun-13 18:30N 36°04' W 005°11'2 4.4
2018-Jun-13 17:56N 36°04' W 005°14'2 4.5
2018-Jun-13 17:30N 36°04' W 005°17'0 0.6
2018-Jun-13 16:59N 36°05' W 005°17'510.5
2018-Jun-13 16:30N 36°08' W 005°12'1 2.1
2018-Jun-13 15:55N 36°07' W 005°13'3 7.8
2018-Jun-13 15:30N 36°05' W 005°16'510.0
2018-Jun-13 15:00N 36°04' W 005°22'4 7.9
2018-Jun-13 14:31N 35°60' W 005°21'2413.3
2018-Jun-13 12:42N 35°53' W 005°50'312.6
2018-Jun-13 12:27N 35°53' W 005°53'  
Track history (hours):
 
Tides and Currents Weather Stations Pressure Air Temp Water Temp Dewpoint Dewpoint Depression Visibility Wind Speed Wind Dir Waves Ship Positions

Reefer Bay

Last reported at 2018-Jun-20 05:27 UTC. Time now 2018-Jun-20 05:50 UTC.
Position N 28°37' W 013°25'.

Length 221 m; draft 11.5 m.

Type: Ship (hazmat cat A). MMSI: 304504000.

Date/timePositionNaut miles runAvg speedWind from/ knotsBaromVisibWave heightAir tempDewpointWater temp
2018-Jun-20 05:27N 28°37' W 013°25'816.7
2018-Jun-20 05:00N 28°44' W 013°21'816.4
2018-Jun-20 04:30N 28°51' W 013°17'816.4
2018-Jun-20 04:00N 28°58' W 013°13'816.4
2018-Jun-20 03:29N 29°06' W 013°09'41816.0
2018-Jun-19 01:23N 34°30' W 007°58'146 5.2
2018-Jun-17 21:19N 35°55' W 005°33'1 1.5
2018-Jun-17 20:59N 35°55' W 005°33'1 1.5
2018-Jun-17 20:28N 35°54' W 005°34'1 2.7
2018-Jun-17 19:57N 35°55' W 005°32'2 4.6
2018-Jun-17 19:29N 35°56' W 005°34'4 7.9
2018-Jun-17 19:00N 35°58' W 005°30'612.6
2018-Jun-17 18:30N 36°03' W 005°24'  
2018-Jun-15 05:34N 36°09' W 005°24'0 6.4
2018-Jun-15 05:30N 36°09' W 005°24'1 2.7
2018-Jun-15 04:59N 36°08' W 005°25'0 0.0
2018-Jun-15 04:29N 36°08' W 005°25'0 0.0
2018-Jun-15 03:59N 36°08' W 005°25'0 0.0
2018-Jun-15 03:29N 36°08' W 005°25'0 0.0
2018-Jun-15 02:53N 36°08' W 005°25'0 0.0
2018-Jun-15 02:29N 36°08' W 005°25'0 0.0
2018-Jun-15 01:59N 36°08' W 005°25'0 0.0
2018-Jun-15 01:29N 36°08' W 005°25'0 0.0
2018-Jun-15 00:59N 36°08' W 005°25'0 0.0
2018-Jun-15 00:29N 36°08' W 005°25'0 0.0
2018-Jun-14 23:53N 36°08' W 005°25'0 0.0
2018-Jun-14 23:29N 36°08' W 005°25'0 0.0
2018-Jun-14 22:59N 36°08' W 005°25'0 0.0
2018-Jun-14 22:23N 36°08' W 005°25'0 0.0
2018-Jun-14 21:59N 36°08' W 005°25'0 0.0
2018-Jun-14 21:23N 36°08' W 005°25'0 0.0
2018-Jun-14 20:59N 36°08' W 005°25'0 0.0
2018-Jun-14 20:29N 36°08' W 005°25'0 0.0
2018-Jun-14 19:59N 36°08' W 005°25'0 0.0
2018-Jun-14 19:23N 36°08' W 005°25'0 0.0
2018-Jun-14 18:59N 36°08' W 005°25'0 0.0
2018-Jun-14 18:29N 36°08' W 005°25'0 0.0
2018-Jun-14 17:59N 36°08' W 005°25'0 0.0
2018-Jun-14 17:29N 36°08' W 005°25'0 0.0
2018-Jun-14 16:53N 36°08' W 005°25'0 0.0
2018-Jun-14 16:29N 36°08' W 005°25'0 0.0
2018-Jun-14 15:59N 36°08' W 005°25'0 0.0
2018-Jun-14 15:29N 36°08' W 005°25'0 0.0
2018-Jun-14 14:59N 36°08' W 005°25'0 0.0
2018-Jun-14 14:29N 36°08' W 005°25'0 0.0
2018-Jun-14 13:59N 36°08' W 005°25'0 0.0
2018-Jun-14 13:29N 36°08' W 005°25'0 0.0
2018-Jun-14 12:59N 36°08' W 005°25'0 0.0
2018-Jun-14 12:29N 36°08' W 005°25'0 0.0
2018-Jun-14 11:59N 36°08' W 005°25'0 0.0
2018-Jun-14 11:29N 36°08' W 005°25'0 0.0
2018-Jun-14 10:59N 36°08' W 005°25'0 0.0
2018-Jun-14 10:29N 36°08' W 005°25'0 0.0
2018-Jun-14 10:00N 36°08' W 005°25'1 0.1
2018-Jun-14 00:29N 36°08' W 005°25'0 0.1
2018-Jun-13 23:47N 36°08' W 005°25'0 0.1
2018-Jun-13 22:50N 36°08' W 005°25'0 0.5
2018-Jun-13 22:30N 36°08' W 005°25'0 0.8
2018-Jun-13 21:59N 36°08' W 005°24'4 9.0
2018-Jun-13 21:31N 36°04' W 005°22'713.4
2018-Jun-13 21:00N 36°05' W 005°14'3 5.0
2018-Jun-13 20:30N 36°07' W 005°12'0 0.9
2018-Jun-13 20:00N 36°07' W 005°12'3 5.7
2018-Jun-13 19:30N 36°04' W 005°11'1 1.9
2018-Jun-13 19:00N 36°04' W 005°12'1 1.4
2018-Jun-13 18:30N 36°04' W 005°11'2 4.4
2018-Jun-13 17:56N 36°04' W 005°14'2 4.5
2018-Jun-13 17:30N 36°04' W 005°17'0 0.6
2018-Jun-13 16:59N 36°05' W 005°17'510.5
2018-Jun-13 16:30N 36°08' W 005°12'1 2.1
2018-Jun-13 15:55N 36°07' W 005°13'3 7.8
2018-Jun-13 15:30N 36°05' W 005°16'510.0
2018-Jun-13 15:00N 36°04' W 005°22'4 7.9
2018-Jun-13 14:31N 35°60' W 005°21'2413.3
2018-Jun-13 12:42N 35°53' W 005°50'312.6
2018-Jun-13 12:27N 35°53' W 005°53'  

Dump ship's entire track history